sensor_id;sensor_type;location;lat;lon;timestamp;pressure;altitude;pressure_sealevel;temperature;humidity
19751;BME280;4663;49.120;9.730;2022-12-29T00:01:13;97628.09;;;2.85;84.04
19751;BME280;4663;49.120;9.730;2022-12-29T00:03:39;97625.84;;;2.90;84.04
19751;BME280;4663;49.120;9.730;2022-12-29T00:06:04;97623.22;;;2.80;83.76
19751;BME280;4663;49.120;9.730;2022-12-29T00:08:29;97626.03;;;2.79;84.02
19751;BME280;4663;49.120;9.730;2022-12-29T00:11:08;97628.13;;;2.75;85.02
19751;BME280;4663;49.120;9.730;2022-12-29T00:13:34;97619.19;;;2.66;84.21
19751;BME280;4663;49.120;9.730;2022-12-29T00:16:19;97617.81;;;2.52;84.85
19751;BME280;4663;49.120;9.730;2022-12-29T00:18:44;97622.25;;;2.72;83.88
19751;BME280;4663;49.120;9.730;2022-12-29T00:21:13;97611.13;;;2.86;83.71
19751;BME280;4663;49.120;9.730;2022-12-29T00:23:57;97597.81;;;2.76;83.94
19751;BME280;4663;49.120;9.730;2022-12-29T00:26:58;97588.03;;;2.95;83.29
19751;BME280;4663;49.120;9.730;2022-12-29T00:29:51;97586.81;;;2.89;83.44
19751;BME280;4663;49.120;9.730;2022-12-29T00:32:35;97579.66;;;2.90;83.80
19751;BME280;4663;49.120;9.730;2022-12-29T00:35:29;97580.50;;;2.90;83.90
19751;BME280;4663;49.120;9.730;2022-12-29T00:37:57;97585.56;;;2.84;84.39
19751;BME280;4663;49.120;9.730;2022-12-29T00:40:43;97581.88;;;3.23;82.84
19751;BME280;4663;49.120;9.730;2022-12-29T00:43:27;97582.47;;;3.16;83.05
19751;BME280;4663;49.120;9.730;2022-12-29T00:46:11;97586.88;;;3.36;82.56
19751;BME280;4663;49.120;9.730;2022-12-29T00:48:36;97586.94;;;3.26;83.96
19751;BME280;4663;49.120;9.730;2022-12-29T00:51:20;97582.06;;;3.39;83.05
19751;BME280;4663;49.120;9.730;2022-12-29T00:53:46;97586.25;;;3.42;82.74
19751;BME280;4663;49.120;9.730;2022-12-29T00:56:11;97576.03;;;3.65;82.06
19751;BME280;4663;49.120;9.730;2022-12-29T00:58:36;97589.25;;;3.57;82.92
19751;BME280;4663;49.120;9.730;2022-12-29T01:01:06;97577.28;;;3.61;82.67
19751;BME280;4663;49.120;9.730;2022-12-29T01:03:33;97568.84;;;3.66;81.39
19751;BME280;4663;49.120;9.730;2022-12-29T01:06:04;97566.22;;;3.92;80.22
19751;BME280;4663;49.120;9.730;2022-12-29T01:08:30;97566.56;;;3.89;79.84
19751;BME280;4663;49.120;9.730;2022-12-29T01:13:25;97568.66;;;4.04;81.06
19751;BME280;4663;49.120;9.730;2022-12-29T01:15:51;97569.72;;;4.11;80.00
19751;BME280;4663;49.120;9.730;2022-12-29T01:18:16;97569.94;;;4.18;80.44
19751;BME280;4663;49.120;9.730;2022-12-29T01:20:42;97567.59;;;3.96;80.78
19751;BME280;4663;49.120;9.730;2022-12-29T01:23:07;97581.41;;;4.10;80.54
19751;BME280;4663;49.120;9.730;2022-12-29T01:25:32;97589.56;;;4.08;81.27
19751;BME280;4663;49.120;9.730;2022-12-29T01:27:58;97583.69;;;4.05;80.92
19751;BME280;4663;49.120;9.730;2022-12-29T01:30:23;97586.44;;;4.13;80.74
19751;BME280;4663;49.120;9.730;2022-12-29T01:32:48;97592.16;;;4.18;81.15
19751;BME280;4663;49.120;9.730;2022-12-29T01:35:14;97594.56;;;4.30;80.79
19751;BME280;4663;49.120;9.730;2022-12-29T01:37:39;97593.13;;;4.36;80.48
19751;BME280;4663;49.120;9.730;2022-12-29T01:40:05;97590.28;;;4.37;79.44
19751;BME280;4663;49.120;9.730;2022-12-29T01:42:30;97599.78;;;4.31;80.54
19751;BME280;4663;49.120;9.730;2022-12-29T01:44:58;97596.41;;;4.29;79.74
19751;BME280;4663;49.120;9.730;2022-12-29T01:47:32;97602.19;;;4.25;80.49
19751;BME280;4663;49.120;9.730;2022-12-29T01:50:10;97607.03;;;4.21;81.03
19751;BME280;4663;49.120;9.730;2022-12-29T01:52:41;97606.50;;;4.17;81.49
19751;BME280;4663;49.120;9.730;2022-12-29T01:55:10;97607.63;;;4.33;81.90
19751;BME280;4663;49.120;9.730;2022-12-29T01:57:38;97600.53;;;4.24;80.38
19751;BME280;4663;49.120;9.730;2022-12-29T02:00:08;97599.47;;;4.16;80.63
19751;BME280;4663;49.120;9.730;2022-12-29T02:02:35;97599.88;;;4.03;81.53
19751;BME280;4663;49.120;9.730;2022-12-29T02:05:07;97601.94;;;4.09;81.88
19751;BME280;4663;49.120;9.730;2022-12-29T02:07:34;97586.34;;;4.05;81.49
19751;BME280;4663;49.120;9.730;2022-12-29T02:10:00;97591.94;;;4.12;82.40
19751;BME280;4663;49.120;9.730;2022-12-29T02:12:26;97587.09;;;4.15;81.40
19751;BME280;4663;49.120;9.730;2022-12-29T02:14:56;97594.06;;;4.08;81.94
19751;BME280;4663;49.120;9.730;2022-12-29T02:20:49;97588.84;;;4.25;81.70
19751;BME280;4663;49.120;9.730;2022-12-29T02:32:00;97567.41;;;4.16;81.52
19751;BME280;4663;49.120;9.730;2022-12-29T02:37:23;97570.78;;;4.18;81.92
19751;BME280;4663;49.120;9.730;2022-12-29T02:50:52;97544.09;;;4.27;81.29
19751;BME280;4663;49.120;9.730;2022-12-29T02:53:20;97535.59;;;4.23;80.62
19751;BME280;4663;49.120;9.730;2022-12-29T02:56:06;97537.81;;;4.36;79.94
19751;BME280;4663;49.120;9.730;2022-12-29T02:58:32;97538.47;;;4.30;81.09
19751;BME280;4663;49.120;9.730;2022-12-29T03:04:25;97532.09;;;4.31;80.88
19751;BME280;4663;49.120;9.730;2022-12-29T03:06:59;97529.75;;;4.28;81.10
19751;BME280;4663;49.120;9.730;2022-12-29T03:09:55;97539.53;;;4.19;82.23
19751;BME280;4663;49.120;9.730;2022-12-29T03:15:25;97535.03;;;4.19;81.99
19751;BME280;4663;49.120;9.730;2022-12-29T03:18:20;97531.16;;;4.40;82.28
19751;BME280;4663;49.120;9.730;2022-12-29T03:20:52;97525.50;;;4.43;82.54
19751;BME280;4663;49.120;9.730;2022-12-29T03:23:21;97525.81;;;4.40;81.55
19751;BME280;4663;49.120;9.730;2022-12-29T03:25:51;97529.44;;;4.31;82.01
19751;BME280;4663;49.120;9.730;2022-12-29T03:28:23;97533.88;;;4.48;82.08
19751;BME280;4663;49.120;9.730;2022-12-29T03:30:50;97523.28;;;4.65;81.47
19751;BME280;4663;49.120;9.730;2022-12-29T03:33:20;97516.56;;;4.61;81.65
19751;BME280;4663;49.120;9.730;2022-12-29T03:35:48;97517.41;;;4.62;81.65
19751;BME280;4663;49.120;9.730;2022-12-29T03:38:23;97516.94;;;4.66;82.04
19751;BME280;4663;49.120;9.730;2022-12-29T03:40:54;97512.16;;;4.52;82.31
19751;BME280;4663;49.120;9.730;2022-12-29T03:43:21;97506.44;;;4.38;82.17
19751;BME280;4663;49.120;9.730;2022-12-29T03:45:47;97508.84;;;4.50;81.72
19751;BME280;4663;49.120;9.730;2022-12-29T03:48:12;97506.53;;;4.63;81.63
19751;BME280;4663;49.120;9.730;2022-12-29T03:50:38;97507.47;;;4.45;83.02
19751;BME280;4663;49.120;9.730;2022-12-29T03:53:03;97501.00;;;4.56;81.45
19751;BME280;4663;49.120;9.730;2022-12-29T03:55:28;97510.81;;;4.47;82.70
19751;BME280;4663;49.120;9.730;2022-12-29T03:57:54;97509.53;;;4.60;82.05
19751;BME280;4663;49.120;9.730;2022-12-29T04:00:19;97511.22;;;4.61;83.50
19751;BME280;4663;49.120;9.730;2022-12-29T04:02:45;97516.19;;;4.56;82.63
19751;BME280;4663;49.120;9.730;2022-12-29T04:05:10;97517.53;;;4.52;83.07
19751;BME280;4663;49.120;9.730;2022-12-29T04:07:35;97523.47;;;4.37;84.92
19751;BME280;4663;49.120;9.730;2022-12-29T04:10:01;97518.84;;;4.47;84.32
19751;BME280;4663;49.120;9.730;2022-12-29T04:12:26;97507.47;;;4.45;83.04
19751;BME280;4663;49.120;9.730;2022-12-29T04:14:52;97505.22;;;4.67;82.42
19751;BME280;4663;49.120;9.730;2022-12-29T04:17:17;97504.09;;;4.78;82.94
19751;BME280;4663;49.120;9.730;2022-12-29T04:19:43;97504.91;;;4.70;82.68
19751;BME280;4663;49.120;9.730;2022-12-29T04:22:08;97506.91;;;4.68;82.99
19751;BME280;4663;49.120;9.730;2022-12-29T04:24:33;97511.13;;;4.79;82.72
19751;BME280;4663;49.120;9.730;2022-12-29T04:26:59;97505.13;;;4.85;82.32
19751;BME280;4663;49.120;9.730;2022-12-29T04:29:24;97496.00;;;5.05;80.84
19751;BME280;4663;49.120;9.730;2022-12-29T04:31:49;97508.03;;;5.01;80.95
19751;BME280;4663;49.120;9.730;2022-12-29T04:34:15;97504.09;;;5.13;79.74
19751;BME280;4663;49.120;9.730;2022-12-29T04:36:40;97503.94;;;5.23;80.00
19751;BME280;4663;49.120;9.730;2022-12-29T04:39:06;97509.00;;;5.34;79.26
19751;BME280;4663;49.120;9.730;2022-12-29T04:41:32;97509.94;;;5.25;79.29
19751;BME280;4663;49.120;9.730;2022-12-29T04:43:57;97497.25;;;5.19;78.84
19751;BME280;4663;49.120;9.730;2022-12-29T04:46:22;97500.75;;;5.19;78.86
19751;BME280;4663;49.120;9.730;2022-12-29T04:48:48;97493.03;;;5.16;78.54
19751;BME280;4663;49.120;9.730;2022-12-29T04:51:13;97498.97;;;4.85;79.68
19751;BME280;4663;49.120;9.730;2022-12-29T04:53:39;97493.09;;;4.90;79.16
19751;BME280;4663;49.120;9.730;2022-12-29T04:56:04;97483.19;;;4.73;80.03
19751;BME280;4663;49.120;9.730;2022-12-29T04:58:30;97486.47;;;4.59;79.81
19751;BME280;4663;49.120;9.730;2022-12-29T05:00:55;97479.91;;;4.45;80.67
19751;BME280;4663;49.120;9.730;2022-12-29T05:03:21;97489.22;;;4.41;80.98
19751;BME280;4663;49.120;9.730;2022-12-29T05:05:46;97479.59;;;4.48;80.31
19751;BME280;4663;49.120;9.730;2022-12-29T05:08:11;97470.03;;;4.37;80.57
19751;BME280;4663;49.120;9.730;2022-12-29T05:10:37;97464.81;;;4.36;80.76
19751;BME280;4663;49.120;9.730;2022-12-29T05:13:02;97468.03;;;4.47;80.46
19751;BME280;4663;49.120;9.730;2022-12-29T05:15:27;97476.38;;;4.44;80.71
19751;BME280;4663;49.120;9.730;2022-12-29T05:17:53;97459.38;;;5.05;76.77
19751;BME280;4663;49.120;9.730;2022-12-29T05:20:18;97470.53;;;4.92;78.84
19751;BME280;4663;49.120;9.730;2022-12-29T05:22:44;97464.38;;;5.00;78.16
19751;BME280;4663;49.120;9.730;2022-12-29T05:25:09;97459.25;;;5.15;77.48
19751;BME280;4663;49.120;9.730;2022-12-29T05:27:35;97470.50;;;4.84;79.71
19751;BME280;4663;49.120;9.730;2022-12-29T05:30:00;97457.41;;;5.07;78.76
19751;BME280;4663;49.120;9.730;2022-12-29T05:32:25;97459.94;;;5.09;78.83
19751;BME280;4663;49.120;9.730;2022-12-29T05:34:51;97457.91;;;5.11;78.35
19751;BME280;4663;49.120;9.730;2022-12-29T05:37:16;97450.88;;;5.10;78.71
19751;BME280;4663;49.120;9.730;2022-12-29T05:39:42;97450.75;;;5.20;77.48
19751;BME280;4663;49.120;9.730;2022-12-29T05:42:07;97459.41;;;5.22;78.04
19751;BME280;4663;49.120;9.730;2022-12-29T05:44:33;97471.19;;;4.86;79.94
19751;BME280;4663;49.120;9.730;2022-12-29T05:46:58;97476.59;;;5.03;78.45
19751;BME280;4663;49.120;9.730;2022-12-29T05:49:23;97474.75;;;5.03;79.64
19751;BME280;4663;49.120;9.730;2022-12-29T05:51:49;97473.03;;;4.85;79.89
19751;BME280;4663;49.120;9.730;2022-12-29T05:54:14;97478.81;;;5.07;79.49
19751;BME280;4663;49.120;9.730;2022-12-29T05:56:40;97478.09;;;4.97;79.82
19751;BME280;4663;49.120;9.730;2022-12-29T05:59:05;97484.63;;;5.03;79.58
19751;BME280;4663;49.120;9.730;2022-12-29T06:01:30;97479.31;;;5.11;79.59
19751;BME280;4663;49.120;9.730;2022-12-29T06:03:56;97487.34;;;5.19;79.78
19751;BME280;4663;49.120;9.730;2022-12-29T06:06:21;97490.41;;;5.24;79.83
19751;BME280;4663;49.120;9.730;2022-12-29T06:08:47;97491.38;;;5.15;80.45
19751;BME280;4663;49.120;9.730;2022-12-29T06:11:12;97498.47;;;5.49;79.33
19751;BME280;4663;49.120;9.730;2022-12-29T06:13:37;97486.25;;;5.55;78.78
19751;BME280;4663;49.120;9.730;2022-12-29T06:16:03;97483.38;;;5.40;79.01
19751;BME280;4663;49.120;9.730;2022-12-29T06:18:29;97492.09;;;5.75;79.09
19751;BME280;4663;49.120;9.730;2022-12-29T06:20:59;97477.69;;;5.60;79.85
19751;BME280;4663;49.120;9.730;2022-12-29T06:23:25;97464.66;;;5.48;80.43
19751;BME280;4663;49.120;9.730;2022-12-29T06:25:50;97467.81;;;5.60;79.94
19751;BME280;4663;49.120;9.730;2022-12-29T06:28:15;97466.31;;;5.66;79.51
19751;BME280;4663;49.120;9.730;2022-12-29T06:30:46;97473.16;;;5.77;78.79
19751;BME280;4663;49.120;9.730;2022-12-29T06:33:12;97479.88;;;5.81;79.34
19751;BME280;4663;49.120;9.730;2022-12-29T06:35:38;97486.56;;;5.77;79.50
19751;BME280;4663;49.120;9.730;2022-12-29T06:38:03;97484.03;;;5.84;79.90
19751;BME280;4663;49.120;9.730;2022-12-29T06:40:29;97488.06;;;5.80;80.37
19751;BME280;4663;49.120;9.730;2022-12-29T06:42:54;97490.41;;;5.91;80.48
19751;BME280;4663;49.120;9.730;2022-12-29T06:45:20;97501.97;;;5.67;81.40
19751;BME280;4663;49.120;9.730;2022-12-29T06:47:45;97491.91;;;5.85;79.12
19751;BME280;4663;49.120;9.730;2022-12-29T06:50:10;97485.03;;;5.91;79.84
19751;BME280;4663;49.120;9.730;2022-12-29T06:52:36;97473.16;;;5.85;79.91
19751;BME280;4663;49.120;9.730;2022-12-29T06:55:01;97471.81;;;5.98;78.75
19751;BME280;4663;49.120;9.730;2022-12-29T06:57:27;97467.78;;;6.10;78.49
19751;BME280;4663;49.120;9.730;2022-12-29T06:59:52;97480.16;;;6.11;77.92
19751;BME280;4663;49.120;9.730;2022-12-29T07:02:20;97476.28;;;6.22;78.46
19751;BME280;4663;49.120;9.730;2022-12-29T07:04:46;97473.31;;;6.17;78.26
19751;BME280;4663;49.120;9.730;2022-12-29T07:07:11;97472.28;;;6.18;78.30
19751;BME280;4663;49.120;9.730;2022-12-29T07:09:37;97474.78;;;6.28;75.55
19751;BME280;4663;49.120;9.730;2022-12-29T07:12:02;97478.31;;;6.20;76.60
19751;BME280;4663;49.120;9.730;2022-12-29T07:14:28;97482.63;;;6.38;76.93
19751;BME280;4663;49.120;9.730;2022-12-29T07:16:53;97474.41;;;6.39;76.98
19751;BME280;4663;49.120;9.730;2022-12-29T07:19:18;97472.25;;;6.26;75.99
19751;BME280;4663;49.120;9.730;2022-12-29T07:21:44;97486.22;;;6.70;76.08
19751;BME280;4663;49.120;9.730;2022-12-29T07:24:09;97484.78;;;6.43;77.85
19751;BME280;4663;49.120;9.730;2022-12-29T07:26:34;97477.56;;;6.43;76.92
19751;BME280;4663;49.120;9.730;2022-12-29T07:29:01;97484.47;;;6.37;76.96
19751;BME280;4663;49.120;9.730;2022-12-29T07:31:27;97477.75;;;6.41;76.80
19751;BME280;4663;49.120;9.730;2022-12-29T07:33:52;97478.13;;;6.30;77.41
19751;BME280;4663;49.120;9.730;2022-12-29T07:36:20;97483.59;;;6.45;77.40
19751;BME280;4663;49.120;9.730;2022-12-29T07:38:45;97469.91;;;6.48;76.68
19751;BME280;4663;49.120;9.730;2022-12-29T07:41:11;97486.88;;;6.07;77.86
19751;BME280;4663;49.120;9.730;2022-12-29T07:43:37;97474.09;;;6.34;76.57
19751;BME280;4663;49.120;9.730;2022-12-29T07:46:02;97483.13;;;6.50;75.25
19751;BME280;4663;49.120;9.730;2022-12-29T07:48:28;97481.13;;;6.35;76.53
19751;BME280;4663;49.120;9.730;2022-12-29T07:50:53;97487.31;;;6.52;75.92
19751;BME280;4663;49.120;9.730;2022-12-29T07:53:19;97486.78;;;6.65;74.60
19751;BME280;4663;49.120;9.730;2022-12-29T07:55:44;97476.75;;;6.43;76.03
19751;BME280;4663;49.120;9.730;2022-12-29T07:58:10;97478.38;;;6.60;74.52
19751;BME280;4663;49.120;9.730;2022-12-29T08:00:35;97479.44;;;6.51;75.68
19751;BME280;4663;49.120;9.730;2022-12-29T08:03:00;97478.53;;;6.67;74.45
19751;BME280;4663;49.120;9.730;2022-12-29T08:05:26;97476.25;;;6.56;75.44
19751;BME280;4663;49.120;9.730;2022-12-29T08:07:51;97485.16;;;6.88;74.23
19751;BME280;4663;49.120;9.730;2022-12-29T08:10:17;97490.69;;;6.86;73.85
19751;BME280;4663;49.120;9.730;2022-12-29T08:12:43;97496.22;;;6.85;75.09
19751;BME280;4663;49.120;9.730;2022-12-29T08:15:10;97499.94;;;6.75;75.78
19751;BME280;4663;49.120;9.730;2022-12-29T08:17:36;97494.91;;;6.81;74.91
19751;BME280;4663;49.120;9.730;2022-12-29T08:20:01;97503.97;;;6.79;75.70
19751;BME280;4663;49.120;9.730;2022-12-29T08:22:27;97499.47;;;6.72;76.87
19751;BME280;4663;49.120;9.730;2022-12-29T08:24:53;97494.09;;;6.72;73.91
19751;BME280;4663;49.120;9.730;2022-12-29T08:27:18;97498.25;;;6.83;74.08
19751;BME280;4663;49.120;9.730;2022-12-29T08:29:44;97503.59;;;6.83;76.09
19751;BME280;4663;49.120;9.730;2022-12-29T08:32:10;97493.91;;;6.82;74.23
19751;BME280;4663;49.120;9.730;2022-12-29T08:34:35;97499.84;;;7.00;75.22
19751;BME280;4663;49.120;9.730;2022-12-29T08:37:01;97495.94;;;6.71;75.30
19751;BME280;4663;49.120;9.730;2022-12-29T08:39:26;97494.13;;;7.03;74.06
19751;BME280;4663;49.120;9.730;2022-12-29T08:41:52;97498.53;;;6.96;74.79
19751;BME280;4663;49.120;9.730;2022-12-29T08:44:17;97502.03;;;6.97;74.26
19751;BME280;4663;49.120;9.730;2022-12-29T08:46:42;97502.44;;;7.17;73.30
19751;BME280;4663;49.120;9.730;2022-12-29T08:49:08;97500.81;;;7.08;73.17
19751;BME280;4663;49.120;9.730;2022-12-29T08:51:33;97499.41;;;7.20;73.15
19751;BME280;4663;49.120;9.730;2022-12-29T08:53:59;97511.81;;;7.21;74.29
19751;BME280;4663;49.120;9.730;2022-12-29T08:56:25;97508.16;;;7.14;74.11
19751;BME280;4663;49.120;9.730;2022-12-29T08:58:51;97491.13;;;7.30;71.71
19751;BME280;4663;49.120;9.730;2022-12-29T09:01:17;97515.16;;;7.23;74.08
19751;BME280;4663;49.120;9.730;2022-12-29T09:03:43;97493.09;;;7.36;72.89
19751;BME280;4663;49.120;9.730;2022-12-29T09:06:08;97506.75;;;7.26;74.16
19751;BME280;4663;49.120;9.730;2022-12-29T09:08:33;97481.03;;;7.32;70.50
19751;BME280;4663;49.120;9.730;2022-12-29T09:11:10;97485.03;;;7.60;70.91
19751;BME280;4663;49.120;9.730;2022-12-29T09:13:35;97514.72;;;7.66;72.61
19751;BME280;4663;49.120;9.730;2022-12-29T09:16:01;97504.44;;;7.47;70.99
19751;BME280;4663;49.120;9.730;2022-12-29T09:18:27;97534.09;;;7.53;74.76
19751;BME280;4663;49.120;9.730;2022-12-29T09:20:59;97527.75;;;7.46;73.66
19751;BME280;4663;49.120;9.730;2022-12-29T09:23:24;97521.28;;;7.64;72.38
19751;BME280;4663;49.120;9.730;2022-12-29T09:25:50;97526.16;;;7.60;72.99
19751;BME280;4663;49.120;9.730;2022-12-29T09:28:16;97521.63;;;7.61;72.61
19751;BME280;4663;49.120;9.730;2022-12-29T09:30:41;97517.03;;;7.69;72.36
19751;BME280;4663;49.120;9.730;2022-12-29T09:33:07;97520.53;;;7.70;72.65
19751;BME280;4663;49.120;9.730;2022-12-29T09:35:32;97519.91;;;7.68;71.38
19751;BME280;4663;49.120;9.730;2022-12-29T09:37:58;97531.59;;;7.75;73.65
19751;BME280;4663;49.120;9.730;2022-12-29T09:40:29;97512.09;;;7.58;70.53
19751;BME280;4663;49.120;9.730;2022-12-29T09:46:22;97525.38;;;7.98;71.28
19751;BME280;4663;49.120;9.730;2022-12-29T09:48:55;97517.28;;;7.83;72.82
19751;BME280;4663;49.120;9.730;2022-12-29T09:51:25;97526.94;;;7.92;73.19
19751;BME280;4663;49.120;9.730;2022-12-29T09:54:00;97530.25;;;7.79;72.72
19751;BME280;4663;49.120;9.730;2022-12-29T09:56:29;97528.78;;;7.68;74.09
19751;BME280;4663;49.120;9.730;2022-12-29T09:59:02;97515.06;;;7.87;72.88
19751;BME280;4663;49.120;9.730;2022-12-29T10:01:46;97523.88;;;8.19;71.12
19751;BME280;4663;49.120;9.730;2022-12-29T10:04:12;97527.38;;;8.04;71.23
19751;BME280;4663;49.120;9.730;2022-12-29T10:06:58;97520.88;;;8.14;70.44
19751;BME280;4663;49.120;9.730;2022-12-29T10:09:36;97508.75;;;8.18;69.88
19751;BME280;4663;49.120;9.730;2022-12-29T10:20:49;97505.53;;;8.38;70.62
19751;BME280;4663;49.120;9.730;2022-12-29T10:23:27;97491.81;;;8.32;68.85
19751;BME280;4663;49.120;9.730;2022-12-29T10:25:56;97491.72;;;8.41;69.37
19751;BME280;4663;49.120;9.730;2022-12-29T10:30:56;97503.94;;;8.43;71.67
19751;BME280;4663;49.120;9.730;2022-12-29T10:33:32;97526.41;;;8.36;71.79
19751;BME280;4663;49.120;9.730;2022-12-29T10:36:04;97516.94;;;8.40;71.28
19751;BME280;4663;49.120;9.730;2022-12-29T10:38:42;97516.41;;;8.44;70.49
19751;BME280;4663;49.120;9.730;2022-12-29T10:41:39;97526.41;;;8.66;72.08
19751;BME280;4663;49.120;9.730;2022-12-29T10:44:09;97526.41;;;8.66;72.83
19751;BME280;4663;49.120;9.730;2022-12-29T10:46:37;97520.75;;;8.91;72.23
19751;BME280;4663;49.120;9.730;2022-12-29T10:49:05;97511.38;;;8.71;69.66
19751;BME280;4663;49.120;9.730;2022-12-29T10:51:36;97527.59;;;9.08;71.88
19751;BME280;4663;49.120;9.730;2022-12-29T10:56:47;97524.38;;;8.98;71.96
19751;BME280;4663;49.120;9.730;2022-12-29T10:59:27;97537.34;;;8.49;73.85
19751;BME280;4663;49.120;9.730;2022-12-29T11:07:18;97534.19;;;8.91;72.25
19751;BME280;4663;49.120;9.730;2022-12-29T11:09:45;97523.00;;;9.02;70.26
19751;BME280;4663;49.120;9.730;2022-12-29T11:12:28;97518.34;;;8.96;71.87
19751;BME280;4663;49.120;9.730;2022-12-29T11:15:15;97515.34;;;8.91;70.64
19751;BME280;4663;49.120;9.730;2022-12-29T11:17:50;97523.72;;;8.81;71.98
19751;BME280;4663;49.120;9.730;2022-12-29T11:20:38;97527.91;;;8.98;71.74
19751;BME280;4663;49.120;9.730;2022-12-29T11:23:30;97537.63;;;9.00;72.77
19751;BME280;4663;49.120;9.730;2022-12-29T11:28:30;97522.97;;;8.87;71.88
19751;BME280;4663;49.120;9.730;2022-12-29T11:31:01;97533.66;;;9.10;73.63
19751;BME280;4663;49.120;9.730;2022-12-29T11:33:32;97536.50;;;9.24;73.47
19751;BME280;4663;49.120;9.730;2022-12-29T11:35:59;97539.97;;;9.03;73.27
19751;BME280;4663;49.120;9.730;2022-12-29T11:38:36;97533.81;;;8.94;73.16
19751;BME280;4663;49.120;9.730;2022-12-29T11:41:03;97520.66;;;8.99;72.54
19751;BME280;4663;49.120;9.730;2022-12-29T11:43:36;97537.44;;;9.01;73.66
19751;BME280;4663;49.120;9.730;2022-12-29T11:46:03;97531.97;;;8.94;74.09
19751;BME280;4663;49.120;9.730;2022-12-29T11:48:38;97533.91;;;9.16;73.52
19751;BME280;4663;49.120;9.730;2022-12-29T11:51:05;97534.31;;;8.82;72.69
19751;BME280;4663;49.120;9.730;2022-12-29T11:53:52;97534.00;;;8.77;74.54
19751;BME280;4663;49.120;9.730;2022-12-29T11:56:37;97531.25;;;8.55;73.57
19751;BME280;4663;49.120;9.730;2022-12-29T12:02:26;97517.13;;;8.23;74.36
19751;BME280;4663;49.120;9.730;2022-12-29T12:05:03;97528.56;;;8.55;73.89
19751;BME280;4663;49.120;9.730;2022-12-29T12:07:40;97526.88;;;8.69;74.92
19751;BME280;4663;49.120;9.730;2022-12-29T12:10:12;97512.47;;;8.77;72.04
19751;BME280;4663;49.120;9.730;2022-12-29T12:12:44;97521.59;;;8.76;73.29
19751;BME280;4663;49.120;9.730;2022-12-29T12:15:24;97527.78;;;8.92;74.38
19751;BME280;4663;49.120;9.730;2022-12-29T12:23:12;97517.13;;;8.83;73.21
19751;BME280;4663;49.120;9.730;2022-12-29T12:28:45;97522.25;;;8.78;74.99
19751;BME280;4663;49.120;9.730;2022-12-29T12:31:17;97524.84;;;8.87;74.20
19751;BME280;4663;49.120;9.730;2022-12-29T12:33:47;97529.38;;;8.86;75.47
19751;BME280;4663;49.120;9.730;2022-12-29T12:46:56;97512.97;;;8.81;72.57
19751;BME280;4663;49.120;9.730;2022-12-29T12:52:30;97524.94;;;8.78;73.08
19751;BME280;4663;49.120;9.730;2022-12-29T12:55:26;97529.19;;;8.88;75.17
19751;BME280;4663;49.120;9.730;2022-12-29T13:03:57;97517.84;;;8.77;74.92
19751;BME280;4663;49.120;9.730;2022-12-29T13:06:25;97511.56;;;8.85;75.12
19751;BME280;4663;49.120;9.730;2022-12-29T13:16:50;97516.66;;;8.65;74.60
19751;BME280;4663;49.120;9.730;2022-12-29T13:19:34;97519.81;;;8.83;74.77
19751;BME280;4663;49.120;9.730;2022-12-29T13:22:27;97522.31;;;8.85;75.55
19751;BME280;4663;49.120;9.730;2022-12-29T13:28:06;97518.72;;;8.63;75.67
19751;BME280;4663;49.120;9.730;2022-12-29T13:38:40;97514.25;;;8.70;74.59
19751;BME280;4663;49.120;9.730;2022-12-29T13:41:11;97515.25;;;8.84;74.44
19751;BME280;4663;49.120;9.730;2022-12-29T13:43:41;97529.66;;;8.76;74.52
19751;BME280;4663;49.120;9.730;2022-12-29T13:46:12;97525.00;;;8.70;74.99
19751;BME280;4663;49.120;9.730;2022-12-29T13:48:46;97534.66;;;8.79;76.09
19751;BME280;4663;49.120;9.730;2022-12-29T13:51:15;97534.97;;;8.54;77.62
19751;BME280;4663;49.120;9.730;2022-12-29T13:57:23;97516.03;;;8.63;76.12
19751;BME280;4663;49.120;9.730;2022-12-29T14:00:02;97519.81;;;8.53;75.95
19751;BME280;4663;49.120;9.730;2022-12-29T14:07:49;97528.47;;;8.49;77.15
19751;BME280;4663;49.120;9.730;2022-12-29T14:11:07;97518.88;;;8.46;78.06
19751;BME280;4663;49.120;9.730;2022-12-29T14:13:18;97526.31;;;8.29;78.56
19751;BME280;4663;49.120;9.730;2022-12-29T14:15:52;97529.50;;;8.09;79.32
19751;BME280;4663;49.120;9.730;2022-12-29T14:18:21;97524.06;;;8.17;78.15
19751;BME280;4663;49.120;9.730;2022-12-29T14:28:35;97533.13;;;7.78;80.54
19751;BME280;4663;49.120;9.730;2022-12-29T14:31:02;97520.81;;;7.84;79.79
19751;BME280;4663;49.120;9.730;2022-12-29T14:33:30;97529.28;;;7.72;81.05
19751;BME280;4663;49.120;9.730;2022-12-29T14:35:57;97532.84;;;7.64;81.67
19751;BME280;4663;49.120;9.730;2022-12-29T14:38:46;97540.25;;;7.62;81.91
19751;BME280;4663;49.120;9.730;2022-12-29T14:41:18;97541.34;;;7.76;82.57
19751;BME280;4663;49.120;9.730;2022-12-29T14:44:19;97539.75;;;7.59;84.20
19751;BME280;4663;49.120;9.730;2022-12-29T14:46:46;97532.13;;;7.71;84.20
19751;BME280;4663;49.120;9.730;2022-12-29T14:49:17;97529.22;;;7.57;86.71
19751;BME280;4663;49.120;9.730;2022-12-29T14:51:43;97523.25;;;7.47;86.38
19751;BME280;4663;49.120;9.730;2022-12-29T14:57:57;97525.84;;;7.32;86.59
19751;BME280;4663;49.120;9.730;2022-12-29T15:00:00;97520.09;;;7.43;85.62
19751;BME280;4663;49.120;9.730;2022-12-29T15:02:36;97525.06;;;7.46;85.01
19751;BME280;4663;49.120;9.730;2022-12-29T15:05:05;97541.56;;;7.43;85.50
19751;BME280;4663;49.120;9.730;2022-12-29T15:07:32;97547.97;;;7.34;86.16
19751;BME280;4663;49.120;9.730;2022-12-29T15:10:13;97543.69;;;7.24;87.05
19751;BME280;4663;49.120;9.730;2022-12-29T15:12:51;97536.59;;;7.32;87.76
19751;BME280;4663;49.120;9.730;2022-12-29T15:17:43;97554.13;;;7.11;88.28
19751;BME280;4663;49.120;9.730;2022-12-29T15:20:40;97538.81;;;7.20;87.10
19751;BME280;4663;49.120;9.730;2022-12-29T15:23:12;97543.81;;;7.31;86.75
19751;BME280;4663;49.120;9.730;2022-12-29T15:25:59;97544.59;;;7.08;86.84
19751;BME280;4663;49.120;9.730;2022-12-29T15:28:27;97543.97;;;6.98;87.48
19751;BME280;4663;49.120;9.730;2022-12-29T15:30:55;97541.19;;;6.74;88.73
19751;BME280;4663;49.120;9.730;2022-12-29T15:33:22;97537.19;;;6.70;88.75
19751;BME280;4663;49.120;9.730;2022-12-29T15:35:52;97547.72;;;6.80;88.92
19751;BME280;4663;49.120;9.730;2022-12-29T15:38:24;97543.41;;;6.71;88.71
19751;BME280;4663;49.120;9.730;2022-12-29T15:46:32;97554.66;;;6.58;89.13
19751;BME280;4663;49.120;9.730;2022-12-29T15:48:58;97557.34;;;6.58;88.95
19751;BME280;4663;49.120;9.730;2022-12-29T15:51:34;97564.03;;;6.70;88.50
19751;BME280;4663;49.120;9.730;2022-12-29T15:54:00;97576.13;;;7.14;87.23